Time;durP1;ratioP1;P1;durP2;ratioP2;P2;SDS_P1;SDS_P2;PMS_P1;PMS_P2;Temp;Humidity;BMP_temperature;BMP_pressure;BME280_temperature;BME280_humidity;BME280_pressure;Samples;Min_cycle;Max_cycle;Signal;HPM_P1;HPM_P2
2023/03/12 10:11:37;;;;;;;22.70;21.10;;;6.00;99.90;;;;;;5126452;27;20360;-77
2023/03/12 10:14:19;;;;;;;21.90;20.40;;;8.10;99.90;;;;;;5128479;28;20448;-78
2023/03/12 10:17:02;;;;;;;24.30;22.77;;;8.40;99.90;;;;;;5128185;28;20459;-77
2023/03/12 10:19:43;;;;;;;21.03;19.70;;;8.50;99.90;;;;;;5128238;28;20440;-78
2023/03/12 10:22:24;;;;;;;22.40;20.93;;;8.70;99.90;;;;;;5128388;28;20455;-77
2023/03/12 10:25:00;;;;;;;22.90;21.50;;;8.70;99.90;;;;;;5127901;28;20455;-76
2023/03/12 10:27:30;;;;;;;19.60;18.30;;;8.90;99.90;;;;;;5128469;28;20443;-76
2023/03/12 10:29:58;;;;;;;20.03;18.53;;;9.50;99.90;;;;;;5128166;28;20548;-75
2023/03/12 10:32:33;;;;;;;19.77;18.37;;;9.70;99.90;;;;;;5128244;28;20847;-75
2023/03/12 10:35:02;;;;;;;21.07;19.27;;;9.40;99.90;;;;;;5128208;28;20452;-75
2023/03/12 10:37:36;;;;;;;20.87;19.57;;;9.20;99.90;;;;;;5127835;28;20490;-76
2023/03/12 10:40:04;;;;;;;19.53;18.23;;;9.30;99.90;;;;;;5127586;28;20449;-75
2023/03/12 10:42:33;;;;;;;18.50;17.30;;;9.30;99.90;;;;;;5127802;28;20483;-75
2023/03/12 10:45:13;;;;;;;20.33;18.57;;;9.40;99.90;;;;;;5127664;28;20977;-76
2023/03/12 10:47:41;;;;;;;19.17;17.97;;;9.50;99.90;;;;;;5127754;28;20447;-75
2023/03/12 10:50:17;;;;;;;19.33;18.03;;;9.50;99.90;;;;;;5127634;28;20473;-75
2023/03/12 10:52:44;;;;;;;19.27;17.77;;;9.30;99.90;;;;;;5127693;28;20444;-74
2023/03/12 10:55:20;;;;;;;18.63;17.33;;;9.30;99.90;;;;;;5127729;28;20452;-74
2023/03/12 10:57:49;;;;;;;19.30;18.10;;;9.20;99.90;;;;;;5127813;28;20488;-75
2023/03/12 11:00:21;;;;;;;19.30;18.20;;;9.30;99.90;;;;;;5127449;28;20965;-75
2023/03/12 11:02:57;;;;;;;19.17;17.93;;;9.40;99.90;;;;;;5127385;28;20447;-75
2023/03/12 11:05:26;;;;;;;20.03;18.57;;;9.60;99.90;;;;;;5127594;28;20473;-75
2023/03/12 11:07:53;;;;;;;20.87;19.60;;;9.50;99.90;;;;;;5127069;28;20986;-75
2023/03/12 11:10:26;;;;;;;21.07;19.47;;;9.70;99.90;;;;;;5124668;28;20492;-75
2023/03/12 11:13:03;;;;;;;17.60;16.60;;;10.20;99.90;;;;;;5113895;28;20464;-75
2023/03/12 11:15:37;;;;;;;18.43;17.43;;;10.60;99.90;;;;;;5113580;28;20940;-75
2023/03/12 11:18:30;;;;;;;16.90;15.90;;;11.00;99.90;;;;;;5113440;28;20444;-76
2023/03/12 11:21:12;;;;;;;16.53;15.27;;;11.80;99.90;;;;;;5110176;28;20457;-75
2023/03/12 11:23:42;;;;;;;14.17;13.37;;;12.40;99.90;;;;;;5113423;28;20441;-76
2023/03/12 11:26:14;;;;;;;13.40;12.70;;;13.00;99.90;;;;;;5113729;28;20544;-75
2023/03/12 11:28:44;;;;;;;10.80;10.20;;;13.90;99.90;;;;;;5113517;28;20449;-75
2023/03/12 11:31:22;;;;;;;11.27;10.77;;;16.00;99.90;;;;;;5113566;28;20485;-76
2023/03/12 11:33:50;;;;;;;11.70;11.10;;;17.90;99.90;;;;;;5112974;28;20452;-75
2023/03/12 11:36:29;;;;;;;11.60;11.10;;;18.30;99.90;;;;;;5112936;28;20445;-75
2023/03/12 11:39:03;;;;;;;12.00;11.40;;;17.80;99.90;;;;;;5113004;28;20437;-76
2023/03/12 11:41:47;;;;;;;11.00;10.60;;;17.80;99.90;;;;;;5113110;28;20966;-75
2023/03/12 11:44:25;;;;;;;10.83;10.43;;;17.50;99.90;;;;;;5112869;28;20445;-75
2023/03/12 11:47:08;;;;;;;10.43;10.03;;;17.40;99.90;;;;;;5112847;28;20445;-75
2023/03/12 11:49:57;;;;;;;11.07;10.60;;;17.50;99.90;;;;;;5112663;28;20493;-75
2023/03/12 11:52:33;;;;;;;11.50;11.00;;;17.40;99.90;;;;;;5112659;28;20489;-74
2023/03/12 11:55:14;;;;;;;9.70;9.40;;;17.10;99.90;;;;;;5112747;28;20860;-75
2023/03/12 11:57:55;;;;;;;10.90;10.40;;;17.20;99.90;;;;;;5112840;28;20453;-77
2023/03/12 12:00:29;;;;;;;10.53;10.17;;;16.90;99.90;;;;;;5112521;28;20452;-76
2023/03/12 12:03:25;;;;;;;9.60;9.20;;;16.20;99.90;;;;;;5112577;28;20939;-76
2023/03/12 12:06:01;;;;;;;9.20;8.90;;;16.10;99.90;;;;;;5112543;28;20828;-75
2023/03/12 12:08:41;;;;;;;10.13;9.83;;;16.50;99.90;;;;;;5112495;28;20456;-76
2023/03/12 12:11:14;;;;;;;10.20;9.90;;;16.50;99.90;;;;;;5112132;28;20845;-75
2023/03/12 12:13:49;;;;;;;9.60;9.30;;;16.70;99.90;;;;;;5112651;28;20460;-74
2023/03/12 12:16:43;;;;;;;9.70;9.40;;;17.00;99.90;;;;;;5112479;28;20476;-75
2023/03/12 12:19:20;;;;;;;9.13;8.80;;;17.20;99.90;;;;;;5112264;28;20438;-75
2023/03/12 12:22:00;;;;;;;9.87;9.57;;;16.60;99.90;;;;;;5111892;28;20452;-76
2023/03/12 12:24:42;;;;;;;10.77;10.27;;;16.90;99.90;;;;;;5111776;28;20449;-75
2023/03/12 12:27:19;;;;;;;10.27;9.87;;;16.70;99.90;;;;;;5112367;28;20441;-76
2023/03/12 12:30:03;;;;;;;10.73;10.23;;;17.30;99.90;;;;;;5111954;28;20512;-76
2023/03/12 12:32:46;;;;;;;10.33;9.93;;;16.80;99.90;;;;;;5112128;28;20449;-77
2023/03/12 12:35:23;;;;;;;10.40;10.00;;;16.80;99.90;;;;;;5112298;28;20465;-76
2023/03/12 12:37:57;;;;;;;10.23;9.87;;;17.20;99.90;;;;;;5111913;28;20967;-77
2023/03/12 12:40:29;;;;;;;10.40;9.80;;;18.70;99.10;;;;;;5112151;28;20447;-77
2023/03/12 12:43:03;;;;;;;11.00;10.60;;;18.70;97.40;;;;;;5112122;28;20457;-76
2023/03/12 12:45:30;;;;;;;12.77;11.97;;;18.40;98.70;;;;;;5112173;28;21011;-77
2023/03/12 12:48:02;;;;;;;11.50;11.00;;;18.10;97.90;;;;;;5111955;28;20448;-77
2023/03/12 12:50:33;;;;;;;9.10;8.70;;;17.80;99.10;;;;;;5111706;28;20493;-77
2023/03/12 12:53:08;;;;;;;10.63;10.13;;;17.30;99.70;;;;;;5111645;28;20449;-78
2023/03/12 12:55:40;;;;;;;11.20;10.70;;;17.00;99.90;;;;;;5111517;28;20475;-78
2023/03/12 12:58:14;;;;;;;10.30;9.70;;;16.80;99.40;;;;;;5111614;28;20453;-77
2023/03/12 13:00:48;;;;;;;9.13;8.63;;;16.40;99.90;;;;;;5111757;28;20437;-77
2023/03/12 13:03:18;;;;;;;9.70;9.40;;;16.30;99.90;;;;;;5111517;28;20959;-77
2023/03/12 13:05:49;;;;;;;9.20;8.90;;;16.00;99.90;;;;;;5111603;28;20452;-76
2023/03/12 13:08:54;;;;;;;11.93;11.30;;;15.70;99.90;;;;;;5110952;28;20983;-77
2023/03/12 13:11:28;;;;;;;11.00;10.20;;;15.60;99.90;;;;;;5109971;28;20560;-75
2023/03/12 13:14:19;;;;;;;9.87;9.43;;;15.50;99.90;;;;;;5111340;28;20844;-78
2023/03/12 13:16:47;;;;;;;10.20;9.50;;;15.20;99.90;;;;;;5111106;28;20496;-76
2023/03/12 13:19:27;;;;;;;10.00;9.30;;;15.10;99.90;;;;;;5111121;28;20449;-79
2023/03/12 13:22:08;;;;;;;9.70;9.30;;;15.00;99.90;;;;;;5111395;28;20449;-78
2023/03/12 13:24:43;;;;;;;9.57;9.17;;;14.80;99.90;;;;;;5110882;28;20453;-79
2023/03/12 13:27:17;;;;;;;12.73;12.20;;;14.30;99.90;;;;;;5111683;28;20441;-79
2023/03/12 13:29:44;;;;;;;12.63;12.03;;;14.00;99.90;;;;;;5111077;28;20453;-78
2023/03/12 13:32:37;;;;;;;12.50;11.80;;;14.00;99.90;;;;;;5111091;28;20449;-77
2023/03/12 13:35:29;;;;;;;10.83;10.23;;;14.30;99.90;;;;;;5110605;28;20449;-76
2023/03/12 13:38:02;;;;;;;9.60;9.10;;;14.60;99.90;;;;;;5111132;28;20449;-76
2023/03/12 13:41:00;;;;;;;10.93;10.30;;;14.50;99.90;;;;;;5110870;28;20565;-77
2023/03/12 13:43:55;;;;;;;10.47;9.93;;;14.50;99.90;;;;;;5094746;28;20500;-77
2023/03/12 13:46:38;;;;;;;10.10;9.60;;;14.80;99.90;;;;;;5110940;28;20475;-78
2023/03/12 13:49:14;;;;;;;10.00;9.40;;;15.40;99.90;;;;;;5108816;28;20457;-77
2023/03/12 13:52:02;;;;;;;9.30;8.70;;;15.80;99.90;;;;;;5110877;28;20480;-78
2023/03/12 13:54:33;;;;;;;8.90;8.47;;;15.50;99.90;;;;;;5110848;28;20445;-78
2023/03/12 13:57:04;;;;;;;9.37;8.97;;;15.30;99.90;;;;;;5110665;28;20526;-78
2023/03/12 13:59:32;;;;;;;10.87;10.20;;;15.80;99.90;;;;;;5110490;28;20445;-78
2023/03/12 14:02:08;;;;;;;10.43;9.83;;;15.80;99.90;;;;;;5110537;28;20441;-77
2023/03/12 14:04:39;;;;;;;10.43;9.73;;;16.00;99.90;;;;;;5110380;28;20441;-76
2023/03/12 14:07:27;;;;;;;11.03;10.53;;;16.00;99.90;;;;;;5110543;28;20449;-77
2023/03/12 14:10:04;;;;;;;9.20;8.90;;;16.20;99.90;;;;;;5110320;28;20473;-77
2023/03/12 14:12:38;;;;;;;10.67;9.77;;;16.10;99.90;;;;;;5110018;28;20449;-78
2023/03/12 14:15:17;;;;;;;10.87;9.87;;;16.20;99.90;;;;;;5110451;28;20777;-78
2023/03/12 14:17:45;;;;;;;11.17;10.57;;;16.20;99.90;;;;;;5110195;28;21053;-78
2023/03/12 14:20:16;;;;;;;11.30;10.50;;;16.20;99.90;;;;;;5110414;28;20485;-77
2023/03/12 14:22:48;;;;;;;10.03;9.53;;;15.70;99.90;;;;;;5111126;28;20445;-76
2023/03/12 14:25:22;;;;;;;10.37;9.77;;;15.40;99.90;;;;;;5110154;28;20445;-78
2023/03/12 14:27:49;;;;;;;10.47;10.07;;;15.00;99.90;;;;;;5110116;28;20612;-77
2023/03/12 14:30:22;;;;;;;11.00;10.27;;;14.90;99.90;;;;;;5110072;28;20485;-78
2023/03/12 14:32:52;;;;;;;9.70;9.20;;;14.90;99.90;;;;;;5110344;28;20506;-78
2023/03/12 14:35:22;;;;;;;10.47;9.97;;;14.80;99.90;;;;;;5109971;28;20836;-79
2023/03/12 14:37:55;;;;;;;9.77;9.27;;;14.90;99.90;;;;;;5109936;28;20445;-78
2023/03/12 14:40:29;;;;;;;10.20;9.67;;;14.70;99.90;;;;;;5109970;28;20865;-79
2023/03/12 14:42:59;;;;;;;10.30;9.90;;;14.70;99.90;;;;;;5110145;28;20454;-78
2023/03/12 14:45:26;;;;;;;10.93;10.33;;;14.80;99.90;;;;;;5110066;28;20453;-78
2023/03/12 14:47:55;;;;;;;10.97;10.47;;;14.70;99.90;;;;;;5114145;28;20461;-78
2023/03/12 14:50:23;;;;;;;10.23;9.63;;;15.00;99.90;;;;;;5113526;28;20485;-79
2023/03/12 14:52:52;;;;;;;10.83;10.20;;;15.20;99.90;;;;;;5113676;28;20455;-77
2023/03/12 14:55:21;;;;;;;10.90;10.33;;;15.20;99.90;;;;;;5113557;28;20453;-78
2023/03/12 14:57:49;;;;;;;9.80;9.20;;;15.20;99.90;;;;;;5113729;28;20452;-78
2023/03/12 15:00:23;;;;;;;10.07;9.43;;;14.90;99.90;;;;;;5113338;28;20510;-77
2023/03/12 15:02:53;;;;;;;9.90;9.40;;;14.70;99.90;;;;;;5113512;28;20444;-78
2023/03/12 15:05:21;;;;;;;10.37;9.87;;;14.60;99.90;;;;;;5113290;28;20441;-77
2023/03/12 15:07:49;;;;;;;10.40;9.80;;;14.50;99.90;;;;;;5113294;28;20469;-77
2023/03/12 15:10:22;;;;;;;10.70;10.20;;;14.30;99.90;;;;;;5113028;28;20995;-77
2023/03/12 15:12:50;;;;;;;10.30;9.80;;;14.20;99.90;;;;;;5113165;28;20453;-78
2023/03/12 15:15:29;;;;;;;10.97;10.47;;;14.10;99.90;;;;;;5113236;28;20450;-78
2023/03/12 15:17:56;;;;;;;10.83;10.23;;;14.10;99.90;;;;;;5113465;28;20813;-77
2023/03/12 15:20:25;;;;;;;9.40;9.00;;;14.10;99.90;;;;;;5113251;28;20449;-77
2023/03/12 15:22:53;;;;;;;10.17;9.47;;;14.00;99.90;;;;;;5112959;28;20541;-77
2023/03/12 15:25:27;;;;;;;10.20;9.77;;;14.00;99.90;;;;;;5112949;28;20450;-77
2023/03/12 15:28:06;;;;;;;11.83;11.30;;;14.00;99.90;;;;;;5112938;28;20448;-77
2023/03/12 15:30:34;;;;;;;11.27;10.67;;;14.10;99.90;;;;;;5112747;28;21023;-77
2023/03/12 15:33:09;;;;;;;10.53;9.93;;;14.00;99.90;;;;;;5112897;28;20457;-77
2023/03/12 15:35:38;;;;;;;9.57;9.07;;;14.10;99.90;;;;;;5112976;28;20451;-78
2023/03/12 15:38:05;;;;;;;10.50;9.80;;;14.10;99.90;;;;;;5112758;28;20437;-77
2023/03/12 15:40:33;;;;;;;10.00;9.40;;;14.10;99.90;;;;;;5112737;28;20805;-77
2023/03/12 15:43:02;;;;;;;10.23;9.80;;;14.20;99.90;;;;;;5112718;28;20947;-78
2023/03/12 15:45:36;;;;;;;10.20;9.70;;;14.20;99.90;;;;;;5112737;28;20453;-78
2023/03/12 15:48:04;;;;;;;10.70;10.20;;;14.20;99.90;;;;;;5112755;28;20468;-78
2023/03/12 15:50:36;;;;;;;12.10;11.30;;;14.00;99.90;;;;;;5112378;28;20449;-78
2023/03/12 15:53:06;;;;;;;10.00;9.50;;;14.00;99.90;;;;;;5112485;28;20956;-78
2023/03/12 15:55:35;;;;;;;10.67;10.07;;;13.90;99.90;;;;;;5112687;28;20648;-79
2023/03/12 15:58:03;;;;;;;10.47;9.97;;;13.80;99.90;;;;;;5112351;28;20453;-78
2023/03/12 16:00:41;;;;;;;10.60;10.10;;;13.70;99.90;;;;;;5112460;28;20475;-78
2023/03/12 16:03:17;;;;;;;9.73;9.27;;;13.70;99.90;;;;;;5112599;28;20936;-77
2023/03/12 16:05:44;;;;;;;10.07;9.50;;;13.70;99.90;;;;;;5112460;28;20895;-77
2023/03/12 16:08:14;;;;;;;9.60;9.07;;;13.80;99.90;;;;;;5112616;28;21072;-77
2023/03/12 16:10:43;;;;;;;10.30;9.50;;;13.80;99.90;;;;;;5112422;28;20496;-77
2023/03/12 16:13:14;;;;;;;10.43;9.47;;;13.80;99.90;;;;;;5112457;28;20456;-77
2023/03/12 16:15:41;;;;;;;11.33;10.63;;;13.70;99.90;;;;;;5112662;28;20809;-77
2023/03/12 16:18:13;;;;;;;11.57;10.63;;;13.80;99.90;;;;;;5112377;28;20445;-77
2023/03/12 16:20:40;;;;;;;11.67;10.70;;;13.80;99.90;;;;;;5112361;28;20437;-77
2023/03/12 16:23:06;;;;;;;9.40;8.80;;;13.80;99.90;;;;;;5111958;28;20457;-78
2023/03/12 16:25:34;;;;;;;10.40;9.33;;;13.70;99.90;;;;;;5112102;28;20738;-77
2023/03/12 16:28:05;;;;;;;11.33;10.60;;;13.70;99.90;;;;;;5111940;28;20476;-77
2023/03/12 16:30:34;;;;;;;12.50;11.43;;;13.60;99.90;;;;;;5111909;28;20810;-77
2023/03/12 16:33:03;;;;;;;11.10;10.40;;;13.60;99.90;;;;;;5111794;28;20469;-77
2023/03/12 16:35:30;;;;;;;11.43;10.60;;;13.50;99.90;;;;;;5112132;28;20468;-76
2023/03/12 16:37:59;;;;;;;10.83;9.77;;;13.50;99.90;;;;;;5112066;28;20442;-76
2023/03/12 16:40:28;;;;;;;11.30;10.57;;;13.50;99.90;;;;;;5112260;28;20813;-75
2023/03/12 16:42:55;;;;;;;10.70;10.00;;;13.40;99.90;;;;;;5111888;28;20452;-77
2023/03/12 16:45:26;;;;;;;10.63;10.10;;;13.40;99.90;;;;;;5111617;28;20445;-78
2023/03/12 16:47:58;;;;;;;11.80;10.80;;;13.40;99.90;;;;;;5111885;28;20814;-77
2023/03/12 16:50:25;;;;;;;12.67;11.70;;;13.40;99.90;;;;;;5111741;28;20441;-77
2023/03/12 16:52:52;;;;;;;10.83;10.03;;;13.40;99.90;;;;;;5111559;28;20481;-77
2023/03/12 16:55:19;;;;;;;11.30;10.30;;;13.30;99.90;;;;;;5111338;28;20825;-78
2023/03/12 16:57:52;;;;;;;11.30;10.40;;;13.30;99.90;;;;;;5111529;28;20457;-76
2023/03/12 17:00:25;;;;;;;10.40;9.80;;;13.40;99.90;;;;;;5111470;28;20449;-78
2023/03/12 17:02:56;;;;;;;10.10;9.60;;;13.30;99.90;;;;;;5111315;28;20442;-77
2023/03/12 17:05:23;;;;;;;10.60;9.83;;;13.30;99.90;;;;;;5111506;28;20453;-77
2023/03/12 17:07:53;;;;;;;9.87;9.37;;;13.30;99.90;;;;;;5111207;28;20480;-77
2023/03/12 17:10:20;;;;;;;10.57;9.87;;;13.20;99.90;;;;;;5110715;28;20564;-74
2023/03/12 17:12:47;;;;;;;11.97;11.10;;;13.10;99.90;;;;;;5111019;28;20473;-77
2023/03/12 17:15:19;;;;;;;11.27;10.40;;;13.10;99.90;;;;;;5111540;28;20450;-77
2023/03/12 17:17:46;;;;;;;10.60;9.80;;;12.90;99.90;;;;;;5111503;28;20445;-76
2023/03/12 17:20:20;;;;;;;12.37;10.03;;;12.80;99.90;;;;;;5111308;28;20448;-77
2023/03/12 17:22:49;;;;;;;10.13;9.40;;;12.70;99.90;;;;;;5111109;28;20449;-78
2023/03/12 17:25:21;;;;;;;11.07;10.23;;;12.70;99.90;;;;;;5111179;28;20476;-78
2023/03/12 17:27:48;;;;;;;11.47;10.50;;;12.60;99.90;;;;;;5110952;28;20449;-77
2023/03/12 17:30:15;;;;;;;11.17;10.33;;;12.60;99.90;;;;;;5110963;28;20444;-76
2023/03/12 17:32:42;;;;;;;10.10;9.57;;;12.70;99.90;;;;;;5111083;28;20481;-75
2023/03/12 17:35:09;;;;;;;11.10;10.40;;;12.70;99.90;;;;;;5111313;28;20445;-77
2023/03/12 17:37:41;;;;;;;12.10;11.20;;;12.60;99.90;;;;;;5110790;28;20461;-76
2023/03/12 17:40:09;;;;;;;11.20;10.33;;;12.50;99.90;;;;;;5110899;28;20461;-76
2023/03/12 17:42:37;;;;;;;11.17;10.23;;;12.40;99.90;;;;;;5110890;28;20548;-76
2023/03/12 17:45:14;;;;;;;11.80;10.80;;;12.30;99.90;;;;;;5110733;28;20468;-76
2023/03/12 17:47:41;;;;;;;12.80;12.10;;;12.20;99.90;;;;;;5111253;28;20479;-77
2023/03/12 17:50:12;;;;;;;11.17;10.23;;;12.10;99.90;;;;;;5110824;28;20450;-78
2023/03/12 17:52:40;;;;;;;11.70;10.83;;;11.90;99.90;;;;;;5110914;28;20485;-76
2023/03/12 17:55:08;;;;;;;11.77;10.87;;;11.80;99.90;;;;;;5111045;28;20456;-78
2023/03/12 17:57:39;;;;;;;12.23;11.27;;;11.70;99.90;;;;;;5110925;28;20454;-77
